sensor_id;sensor_type;location;lat;lon;timestamp;P1;durP1;ratioP1;P2;durP2;ratioP2
2035;SDS011;23642;42.658;23.350;2023-06-22T00:02:08;108.00;;;100.70;;
2035;SDS011;23642;42.658;23.350;2023-06-22T00:04:41;106.33;;;99.37;;
2035;SDS011;23642;42.658;23.350;2023-06-22T00:07:11;109.33;;;102.23;;
2035;SDS011;23642;42.658;23.350;2023-06-22T00:09:45;113.67;;;105.80;;
2035;SDS011;23642;42.658;23.350;2023-06-22T00:12:13;111.90;;;104.70;;
2035;SDS011;23642;42.658;23.350;2023-06-22T00:14:40;113.90;;;106.30;;
2035;SDS011;23642;42.658;23.350;2023-06-22T00:17:11;109.17;;;102.20;;
2035;SDS011;23642;42.658;23.350;2023-06-22T00:19:46;108.37;;;101.40;;
2035;SDS011;23642;42.658;23.350;2023-06-22T00:22:18;109.50;;;102.20;;
2035;SDS011;23642;42.658;23.350;2023-06-22T00:25:12;108.83;;;101.93;;
2035;SDS011;23642;42.658;23.350;2023-06-22T00:27:48;107.90;;;100.80;;
2035;SDS011;23642;42.658;23.350;2023-06-22T00:30:20;107.10;;;100.33;;
2035;SDS011;23642;42.658;23.350;2023-06-22T00:32:50;104.57;;;97.73;;
2035;SDS011;23642;42.658;23.350;2023-06-22T00:35:22;104.67;;;98.13;;
2035;SDS011;23642;42.658;23.350;2023-06-22T00:37:54;104.87;;;98.23;;
2035;SDS011;23642;42.658;23.350;2023-06-22T00:40:26;107.50;;;100.73;;
2035;SDS011;23642;42.658;23.350;2023-06-22T00:42:54;103.43;;;96.63;;
2035;SDS011;23642;42.658;23.350;2023-06-22T00:45:24;106.57;;;99.87;;
2035;SDS011;23642;42.658;23.350;2023-06-22T00:47:55;101.50;;;94.83;;
2035;SDS011;23642;42.658;23.350;2023-06-22T00:50:24;107.10;;;99.83;;
2035;SDS011;23642;42.658;23.350;2023-06-22T00:52:54;104.43;;;97.80;;
2035;SDS011;23642;42.658;23.350;2023-06-22T00:55:24;105.27;;;98.33;;
2035;SDS011;23642;42.658;23.350;2023-06-22T00:57:55;104.53;;;97.83;;
2035;SDS011;23642;42.658;23.350;2023-06-22T01:00:25;103.23;;;96.40;;
2035;SDS011;23642;42.658;23.350;2023-06-22T01:02:58;103.17;;;96.47;;
2035;SDS011;23642;42.658;23.350;2023-06-22T01:05:34;102.47;;;95.87;;
2035;SDS011;23642;42.658;23.350;2023-06-22T01:08:22;102.27;;;96.07;;
2035;SDS011;23642;42.658;23.350;2023-06-22T01:11:04;103.80;;;97.10;;
2035;SDS011;23642;42.658;23.350;2023-06-22T01:13:48;103.83;;;97.20;;
2035;SDS011;23642;42.658;23.350;2023-06-22T01:16:39;104.77;;;98.27;;
2035;SDS011;23642;42.658;23.350;2023-06-22T01:19:18;102.33;;;95.93;;
2035;SDS011;23642;42.658;23.350;2023-06-22T01:21:55;105.47;;;98.73;;
2035;SDS011;23642;42.658;23.350;2023-06-22T01:24:31;105.97;;;99.40;;
2035;SDS011;23642;42.658;23.350;2023-06-22T01:27:09;105.33;;;98.87;;
2035;SDS011;23642;42.658;23.350;2023-06-22T01:29:50;103.70;;;96.93;;
2035;SDS011;23642;42.658;23.350;2023-06-22T01:32:19;104.80;;;98.00;;
2035;SDS011;23642;42.658;23.350;2023-06-22T01:34:48;100.53;;;94.43;;
2035;SDS011;23642;42.658;23.350;2023-06-22T01:37:17;104.47;;;97.87;;
2035;SDS011;23642;42.658;23.350;2023-06-22T01:39:44;101.80;;;95.50;;
2035;SDS011;23642;42.658;23.350;2023-06-22T01:42:12;102.07;;;95.60;;
2035;SDS011;23642;42.658;23.350;2023-06-22T01:44:40;100.97;;;94.60;;
2035;SDS011;23642;42.658;23.350;2023-06-22T01:47:13;102.03;;;95.73;;
2035;SDS011;23642;42.658;23.350;2023-06-22T01:49:43;103.57;;;97.00;;
2035;SDS011;23642;42.658;23.350;2023-06-22T01:52:15;102.50;;;95.63;;
2035;SDS011;23642;42.658;23.350;2023-06-22T01:54:43;105.50;;;98.80;;
2035;SDS011;23642;42.658;23.350;2023-06-22T02:00:04;100.23;;;93.97;;
2035;SDS011;23642;42.658;23.350;2023-06-22T02:02:43;99.00;;;92.90;;
2035;SDS011;23642;42.658;23.350;2023-06-22T02:05:20;101.77;;;95.40;;
2035;SDS011;23642;42.658;23.350;2023-06-22T02:08:16;100.33;;;94.00;;
2035;SDS011;23642;42.658;23.350;2023-06-22T02:10:49;100.30;;;93.97;;
2035;SDS011;23642;42.658;23.350;2023-06-22T02:13:25;99.30;;;93.10;;
2035;SDS011;23642;42.658;23.350;2023-06-22T02:15:54;102.70;;;96.40;;
2035;SDS011;23642;42.658;23.350;2023-06-22T02:18:32;103.80;;;97.30;;
2035;SDS011;23642;42.658;23.350;2023-06-22T02:21:11;99.83;;;93.60;;
2035;SDS011;23642;42.658;23.350;2023-06-22T02:23:46;102.43;;;96.03;;
2035;SDS011;23642;42.658;23.350;2023-06-22T02:26:18;103.97;;;97.47;;
2035;SDS011;23642;42.658;23.350;2023-06-22T02:28:51;101.37;;;94.97;;
2035;SDS011;23642;42.658;23.350;2023-06-22T02:31:29;106.13;;;99.57;;
2035;SDS011;23642;42.658;23.350;2023-06-22T02:34:08;102.97;;;95.93;;
2035;SDS011;23642;42.658;23.350;2023-06-22T02:36:43;99.33;;;92.93;;
2035;SDS011;23642;42.658;23.350;2023-06-22T02:39:16;102.80;;;96.10;;
2035;SDS011;23642;42.658;23.350;2023-06-22T02:41:44;106.17;;;99.50;;
2035;SDS011;23642;42.658;23.350;2023-06-22T02:47:29;103.40;;;96.13;;
2035;SDS011;23642;42.658;23.350;2023-06-22T02:53:28;99.30;;;92.80;;
2035;SDS011;23642;42.658;23.350;2023-06-22T02:56:24;104.53;;;97.40;;
2035;SDS011;23642;42.658;23.350;2023-06-22T02:58:53;98.90;;;92.70;;
2035;SDS011;23642;42.658;23.350;2023-06-22T03:01:25;100.07;;;93.47;;
2035;SDS011;23642;42.658;23.350;2023-06-22T03:03:55;99.90;;;93.00;;
2035;SDS011;23642;42.658;23.350;2023-06-22T03:06:29;101.23;;;94.73;;
2035;SDS011;23642;42.658;23.350;2023-06-22T03:09:14;99.40;;;92.73;;
2035;SDS011;23642;42.658;23.350;2023-06-22T03:11:47;99.43;;;92.33;;
2035;SDS011;23642;42.658;23.350;2023-06-22T03:14:24;102.43;;;95.53;;
2035;SDS011;23642;42.658;23.350;2023-06-22T03:16:56;102.77;;;96.27;;
2035;SDS011;23642;42.658;23.350;2023-06-22T03:19:38;99.70;;;93.17;;
2035;SDS011;23642;42.658;23.350;2023-06-22T03:22:09;101.33;;;94.73;;
2035;SDS011;23642;42.658;23.350;2023-06-22T03:24:41;101.87;;;95.17;;
2035;SDS011;23642;42.658;23.350;2023-06-22T03:27:11;101.80;;;95.20;;
2035;SDS011;23642;42.658;23.350;2023-06-22T03:29:48;101.50;;;94.90;;
2035;SDS011;23642;42.658;23.350;2023-06-22T03:32:17;96.57;;;90.13;;
2035;SDS011;23642;42.658;23.350;2023-06-22T03:34:53;99.40;;;93.00;;
2035;SDS011;23642;42.658;23.350;2023-06-22T03:37:25;101.50;;;94.70;;
2035;SDS011;23642;42.658;23.350;2023-06-22T03:39:57;99.70;;;92.90;;
2035;SDS011;23642;42.658;23.350;2023-06-22T03:42:25;95.77;;;88.77;;
2035;SDS011;23642;42.658;23.350;2023-06-22T03:45:07;97.43;;;90.73;;
2035;SDS011;23642;42.658;23.350;2023-06-22T03:47:41;97.93;;;91.03;;
2035;SDS011;23642;42.658;23.350;2023-06-22T03:50:08;100.17;;;93.40;;
2035;SDS011;23642;42.658;23.350;2023-06-22T03:52:46;99.83;;;93.00;;
2035;SDS011;23642;42.658;23.350;2023-06-22T03:55:22;100.57;;;93.97;;
2035;SDS011;23642;42.658;23.350;2023-06-22T03:57:51;101.53;;;94.60;;
2035;SDS011;23642;42.658;23.350;2023-06-22T04:00:23;101.37;;;94.33;;
2035;SDS011;23642;42.658;23.350;2023-06-22T04:02:58;102.30;;;95.20;;
2035;SDS011;23642;42.658;23.350;2023-06-22T04:05:56;105.30;;;98.10;;
2035;SDS011;23642;42.658;23.350;2023-06-22T04:08:24;102.70;;;95.13;;
2035;SDS011;23642;42.658;23.350;2023-06-22T04:11:02;101.67;;;94.40;;
2035;SDS011;23642;42.658;23.350;2023-06-22T04:13:49;102.00;;;94.90;;
2035;SDS011;23642;42.658;23.350;2023-06-22T04:16:18;104.00;;;96.40;;
2035;SDS011;23642;42.658;23.350;2023-06-22T04:18:57;101.67;;;94.47;;
2035;SDS011;23642;42.658;23.350;2023-06-22T04:21:44;102.17;;;94.97;;
2035;SDS011;23642;42.658;23.350;2023-06-22T04:27:20;102.30;;;95.00;;
2035;SDS011;23642;42.658;23.350;2023-06-22T04:29:53;102.90;;;95.70;;
2035;SDS011;23642;42.658;23.350;2023-06-22T04:32:27;102.70;;;95.60;;
2035;SDS011;23642;42.658;23.350;2023-06-22T04:35:12;104.60;;;97.20;;
2035;SDS011;23642;42.658;23.350;2023-06-22T04:37:52;105.33;;;98.00;;
2035;SDS011;23642;42.658;23.350;2023-06-22T04:40:25;102.83;;;95.67;;
2035;SDS011;23642;42.658;23.350;2023-06-22T04:42:54;104.60;;;97.50;;
2035;SDS011;23642;42.658;23.350;2023-06-22T04:48:19;104.47;;;97.03;;
2035;SDS011;23642;42.658;23.350;2023-06-22T04:50:57;108.17;;;100.27;;
2035;SDS011;23642;42.658;23.350;2023-06-22T04:53:34;107.33;;;99.93;;
2035;SDS011;23642;42.658;23.350;2023-06-22T04:56:13;107.43;;;99.53;;
2035;SDS011;23642;42.658;23.350;2023-06-22T05:01:57;106.83;;;99.10;;
2035;SDS011;23642;42.658;23.350;2023-06-22T05:04:36;106.33;;;98.60;;
2035;SDS011;23642;42.658;23.350;2023-06-22T05:07:24;106.17;;;98.80;;
2035;SDS011;23642;42.658;23.350;2023-06-22T05:09:52;107.93;;;100.37;;
2035;SDS011;23642;42.658;23.350;2023-06-22T05:12:25;113.03;;;104.73;;
2035;SDS011;23642;42.658;23.350;2023-06-22T05:15:15;111.80;;;104.13;;
2035;SDS011;23642;42.658;23.350;2023-06-22T05:18:02;111.33;;;103.63;;
2035;SDS011;23642;42.658;23.350;2023-06-22T05:20:33;111.13;;;103.13;;
2035;SDS011;23642;42.658;23.350;2023-06-22T05:23:06;112.03;;;102.73;;
2035;SDS011;23642;42.658;23.350;2023-06-22T05:25:45;114.67;;;105.90;;
2035;SDS011;23642;42.658;23.350;2023-06-22T05:28:38;112.37;;;104.33;;
2035;SDS011;23642;42.658;23.350;2023-06-22T05:34:10;111.57;;;103.77;;
2035;SDS011;23642;42.658;23.350;2023-06-22T05:36:48;107.33;;;99.93;;
2035;SDS011;23642;42.658;23.350;2023-06-22T05:39:20;110.23;;;102.23;;
2035;SDS011;23642;42.658;23.350;2023-06-22T05:41:51;114.03;;;106.13;;
2035;SDS011;23642;42.658;23.350;2023-06-22T05:47:38;113.67;;;105.87;;
2035;SDS011;23642;42.658;23.350;2023-06-22T05:50:08;115.43;;;107.03;;
2035;SDS011;23642;42.658;23.350;2023-06-22T05:52:38;111.83;;;104.13;;
2035;SDS011;23642;42.658;23.350;2023-06-22T05:55:06;113.43;;;105.50;;
2035;SDS011;23642;42.658;23.350;2023-06-22T05:57:47;115.73;;;107.37;;
2035;SDS011;23642;42.658;23.350;2023-06-22T06:00:17;115.23;;;106.23;;
2035;SDS011;23642;42.658;23.350;2023-06-22T06:02:50;115.10;;;106.60;;
2035;SDS011;23642;42.658;23.350;2023-06-22T06:05:28;115.17;;;107.13;;
2035;SDS011;23642;42.658;23.350;2023-06-22T06:08:02;115.40;;;107.57;;
2035;SDS011;23642;42.658;23.350;2023-06-22T06:10:44;115.60;;;107.07;;
2035;SDS011;23642;42.658;23.350;2023-06-22T06:13:13;115.27;;;107.13;;
2035;SDS011;23642;42.658;23.350;2023-06-22T06:19:27;121.27;;;112.83;;
2035;SDS011;23642;42.658;23.350;2023-06-22T06:22:17;120.47;;;112.03;;
2035;SDS011;23642;42.658;23.350;2023-06-22T06:24:57;117.93;;;109.63;;
2035;SDS011;23642;42.658;23.350;2023-06-22T06:27:49;119.20;;;111.33;;
2035;SDS011;23642;42.658;23.350;2023-06-22T06:30:22;119.43;;;111.57;;
2035;SDS011;23642;42.658;23.350;2023-06-22T06:39:46;126.23;;;116.80;;
2035;SDS011;23642;42.658;23.350;2023-06-22T06:46:31;124.60;;;116.53;;
2035;SDS011;23642;42.658;23.350;2023-06-22T06:49:37;122.63;;;114.77;;
2035;SDS011;23642;42.658;23.350;2023-06-22T07:02:37;121.77;;;114.00;;
2035;SDS011;23642;42.658;23.350;2023-06-22T07:06:11;125.17;;;117.10;;
2035;SDS011;23642;42.658;23.350;2023-06-22T07:09:34;126.00;;;117.80;;
2035;SDS011;23642;42.658;23.350;2023-06-22T07:15:51;134.83;;;126.27;;
2035;SDS011;23642;42.658;23.350;2023-06-22T07:19:07;134.10;;;125.90;;
2035;SDS011;23642;42.658;23.350;2023-06-22T07:25:18;133.07;;;124.97;;
2035;SDS011;23642;42.658;23.350;2023-06-22T07:28:47;132.17;;;124.20;;
2035;SDS011;23642;42.658;23.350;2023-06-22T07:41:17;135.97;;;127.87;;
2035;SDS011;23642;42.658;23.350;2023-06-22T07:47:17;134.90;;;126.40;;
2035;SDS011;23642;42.658;23.350;2023-06-22T07:50:26;134.50;;;125.80;;
2035;SDS011;23642;42.658;23.350;2023-06-22T07:54:29;133.30;;;125.30;;
2035;SDS011;23642;42.658;23.350;2023-06-22T07:56:46;131.27;;;123.40;;
2035;SDS011;23642;42.658;23.350;2023-06-22T07:59:13;135.73;;;127.20;;
2035;SDS011;23642;42.658;23.350;2023-06-22T08:01:46;134.80;;;126.40;;
2035;SDS011;23642;42.658;23.350;2023-06-22T08:08:12;137.00;;;128.60;;
2035;SDS011;23642;42.658;23.350;2023-06-22T08:11:08;136.00;;;127.50;;
2035;SDS011;23642;42.658;23.350;2023-06-22T08:14:02;132.00;;;123.80;;
2035;SDS011;23642;42.658;23.350;2023-06-22T08:20:00;132.50;;;123.93;;
2035;SDS011;23642;42.658;23.350;2023-06-22T08:22:38;130.33;;;122.23;;
2035;SDS011;23642;42.658;23.350;2023-06-22T08:25:26;135.80;;;127.63;;
2035;SDS011;23642;42.658;23.350;2023-06-22T08:28:01;132.33;;;124.03;;
2035;SDS011;23642;42.658;23.350;2023-06-22T08:30:31;135.07;;;126.57;;
2035;SDS011;23642;42.658;23.350;2023-06-22T08:36:22;133.93;;;125.73;;
2035;SDS011;23642;42.658;23.350;2023-06-22T08:38:59;132.50;;;124.43;;
2035;SDS011;23642;42.658;23.350;2023-06-22T08:42:10;129.77;;;121.90;;
2035;SDS011;23642;42.658;23.350;2023-06-22T08:44:55;131.80;;;124.00;;
2035;SDS011;23642;42.658;23.350;2023-06-22T08:47:47;133.70;;;125.23;;
2035;SDS011;23642;42.658;23.350;2023-06-22T08:50:58;133.47;;;125.37;;
2035;SDS011;23642;42.658;23.350;2023-06-22T08:53:50;128.70;;;120.80;;
2035;SDS011;23642;42.658;23.350;2023-06-22T08:57:09;126.47;;;118.73;;
2035;SDS011;23642;42.658;23.350;2023-06-22T09:03:06;135.27;;;127.13;;
2035;SDS011;23642;42.658;23.350;2023-06-22T09:05:43;132.73;;;124.90;;
2035;SDS011;23642;42.658;23.350;2023-06-22T09:08:52;125.37;;;117.50;;
2035;SDS011;23642;42.658;23.350;2023-06-22T09:11:39;127.10;;;119.60;;
2035;SDS011;23642;42.658;23.350;2023-06-22T09:14:31;122.80;;;115.50;;
2035;SDS011;23642;42.658;23.350;2023-06-22T09:17:15;117.77;;;110.77;;
2035;SDS011;23642;42.658;23.350;2023-06-22T09:23:42;121.47;;;114.37;;
2035;SDS011;23642;42.658;23.350;2023-06-22T09:29:59;117.77;;;110.77;;
2035;SDS011;23642;42.658;23.350;2023-06-22T09:32:44;116.57;;;109.47;;
2035;SDS011;23642;42.658;23.350;2023-06-22T09:36:52;131.37;;;123.60;;
2035;SDS011;23642;42.658;23.350;2023-06-22T09:39:09;127.93;;;120.43;;
2035;SDS011;23642;42.658;23.350;2023-06-22T09:42:05;124.47;;;116.97;;
2035;SDS011;23642;42.658;23.350;2023-06-22T09:45:05;123.60;;;115.90;;
2035;SDS011;23642;42.658;23.350;2023-06-22T09:48:13;126.27;;;118.97;;
2035;SDS011;23642;42.658;23.350;2023-06-22T09:50:48;133.00;;;124.83;;
2035;SDS011;23642;42.658;23.350;2023-06-22T09:53:16;126.90;;;119.13;;
2035;SDS011;23642;42.658;23.350;2023-06-22T09:58:54;123.90;;;116.10;;
2035;SDS011;23642;42.658;23.350;2023-06-22T10:01:42;135.33;;;127.00;;
2035;SDS011;23642;42.658;23.350;2023-06-22T10:04:53;133.60;;;125.90;;
2035;SDS011;23642;42.658;23.350;2023-06-22T10:07:50;125.93;;;118.47;;
2035;SDS011;23642;42.658;23.350;2023-06-22T10:10:40;125.17;;;117.73;;
2035;SDS011;23642;42.658;23.350;2023-06-22T10:13:41;126.27;;;118.60;;
2035;SDS011;23642;42.658;23.350;2023-06-22T10:17:00;124.37;;;116.97;;
2035;SDS011;23642;42.658;23.350;2023-06-22T10:20:14;134.80;;;126.57;;
2035;SDS011;23642;42.658;23.350;2023-06-22T10:23:15;134.40;;;125.87;;
2035;SDS011;23642;42.658;23.350;2023-06-22T10:25:50;126.33;;;118.67;;
2035;SDS011;23642;42.658;23.350;2023-06-22T10:28:55;124.60;;;117.00;;
2035;SDS011;23642;42.658;23.350;2023-06-22T10:31:23;125.00;;;117.70;;
2035;SDS011;23642;42.658;23.350;2023-06-22T10:34:04;124.90;;;117.20;;
2035;SDS011;23642;42.658;23.350;2023-06-22T10:39:43;129.57;;;122.07;;
2035;SDS011;23642;42.658;23.350;2023-06-22T10:42:20;132.63;;;124.90;;
2035;SDS011;23642;42.658;23.350;2023-06-22T10:45:38;122.67;;;115.37;;
2035;SDS011;23642;42.658;23.350;2023-06-22T10:48:40;123.33;;;115.67;;
2035;SDS011;23642;42.658;23.350;2023-06-22T10:51:42;125.93;;;118.47;;
2035;SDS011;23642;42.658;23.350;2023-06-22T10:54:45;125.33;;;117.60;;
2035;SDS011;23642;42.658;23.350;2023-06-22T10:57:33;131.93;;;124.33;;
2035;SDS011;23642;42.658;23.350;2023-06-22T11:00:34;132.23;;;124.23;;
2035;SDS011;23642;42.658;23.350;2023-06-22T11:06:38;125.30;;;117.90;;
2035;SDS011;23642;42.658;23.350;2023-06-22T11:09:28;124.87;;;117.47;;
2035;SDS011;23642;42.658;23.350;2023-06-22T11:12:20;123.67;;;116.43;;
2035;SDS011;23642;42.658;23.350;2023-06-22T11:15:17;134.73;;;127.23;;
2035;SDS011;23642;42.658;23.350;2023-06-22T11:17:49;133.80;;;126.23;;
2035;SDS011;23642;42.658;23.350;2023-06-22T11:27:38;123.97;;;116.53;;
2035;SDS011;23642;42.658;23.350;2023-06-22T11:31:40;124.00;;;116.70;;
2035;SDS011;23642;42.658;23.350;2023-06-22T11:39:27;132.47;;;124.97;;
2035;SDS011;23642;42.658;23.350;2023-06-22T11:47:52;124.10;;;116.70;;
2035;SDS011;23642;42.658;23.350;2023-06-22T11:49:46;133.17;;;125.47;;
2035;SDS011;23642;42.658;23.350;2023-06-22T11:56:27;122.37;;;115.17;;
2035;SDS011;23642;42.658;23.350;2023-06-22T11:59:10;123.87;;;116.77;;
2035;SDS011;23642;42.658;23.350;2023-06-22T12:02:00;120.70;;;113.27;;
2035;SDS011;23642;42.658;23.350;2023-06-22T12:04:49;122.80;;;115.60;;
2035;SDS011;23642;42.658;23.350;2023-06-22T12:11:33;134.80;;;126.97;;
2035;SDS011;23642;42.658;23.350;2023-06-22T12:14:17;125.47;;;118.07;;
2035;SDS011;23642;42.658;23.350;2023-06-22T12:17:11;122.80;;;115.73;;
2035;SDS011;23642;42.658;23.350;2023-06-22T12:20:27;125.53;;;118.27;;
2035;SDS011;23642;42.658;23.350;2023-06-22T12:43:13;113.83;;;106.33;;
2035;SDS011;23642;42.658;23.350;2023-06-22T12:49:37;112.80;;;105.80;;
2035;SDS011;23642;42.658;23.350;2023-06-22T12:52:47;112.30;;;105.30;;
2035;SDS011;23642;42.658;23.350;2023-06-22T12:59:07;112.57;;;105.47;;
2035;SDS011;23642;42.658;23.350;2023-06-22T13:01:43;113.83;;;106.53;;
2035;SDS011;23642;42.658;23.350;2023-06-22T13:07:20;114.43;;;107.17;;
2035;SDS011;23642;42.658;23.350;2023-06-22T13:07:59;116.37;;;108.53;;
2035;SDS011;23642;42.658;23.350;2023-06-22T13:10:54;117.70;;;109.97;;
2035;SDS011;23642;42.658;23.350;2023-06-22T13:27:27;116.47;;;108.87;;
2035;SDS011;23642;42.658;23.350;2023-06-22T13:30:58;113.67;;;106.20;;
2035;SDS011;23642;42.658;23.350;2023-06-22T13:34:10;114.10;;;106.70;;
2035;SDS011;23642;42.658;23.350;2023-06-22T14:11:25;108.77;;;100.80;;
2035;SDS011;23642;42.658;23.350;2023-06-22T14:14:14;114.20;;;104.50;;
2035;SDS011;23642;42.658;23.350;2023-06-22T14:17:29;112.83;;;104.63;;
2035;SDS011;23642;42.658;23.350;2023-06-22T14:24:29;110.20;;;102.40;;
2035;SDS011;23642;42.658;23.350;2023-06-22T14:27:54;110.13;;;102.30;;
2035;SDS011;23642;42.658;23.350;2023-06-22T14:31:31;107.60;;;100.20;;
2035;SDS011;23642;42.658;23.350;2023-06-22T14:34:34;108.77;;;100.87;;
2035;SDS011;23642;42.658;23.350;2023-06-22T14:37:34;108.80;;;100.93;;
2035;SDS011;23642;42.658;23.350;2023-06-22T14:40:11;105.77;;;98.23;;
2035;SDS011;23642;42.658;23.350;2023-06-22T14:43:11;109.63;;;102.03;;
2035;SDS011;23642;42.658;23.350;2023-06-22T14:45:48;110.63;;;102.40;;
2035;SDS011;23642;42.658;23.350;2023-06-22T14:48:19;105.83;;;98.30;;
2035;SDS011;23642;42.658;23.350;2023-06-22T14:50:54;106.00;;;98.43;;
2035;SDS011;23642;42.658;23.350;2023-06-22T14:56:45;108.97;;;101.03;;
2035;SDS011;23642;42.658;23.350;2023-06-22T14:59:53;108.27;;;99.87;;
2035;SDS011;23642;42.658;23.350;2023-06-22T15:02:55;107.23;;;99.83;;
2035;SDS011;23642;42.658;23.350;2023-06-22T15:07:32;106.57;;;98.73;;
2035;SDS011;23642;42.658;23.350;2023-06-22T15:09:40;106.50;;;99.07;;
2035;SDS011;23642;42.658;23.350;2023-06-22T15:12:48;108.73;;;101.10;;
2035;SDS011;23642;42.658;23.350;2023-06-22T15:15:37;104.80;;;96.53;;
2035;SDS011;23642;42.658;23.350;2023-06-22T15:18:35;103.70;;;96.40;;
2035;SDS011;23642;42.658;23.350;2023-06-22T15:22:30;104.67;;;97.40;;
2035;SDS011;23642;42.658;23.350;2023-06-22T15:24:53;106.20;;;98.60;;
2035;SDS011;23642;42.658;23.350;2023-06-22T15:34:39;106.40;;;99.10;;
2035;SDS011;23642;42.658;23.350;2023-06-22T15:41:01;111.70;;;104.13;;
2035;SDS011;23642;42.658;23.350;2023-06-22T15:43:35;109.37;;;101.97;;
2035;SDS011;23642;42.658;23.350;2023-06-22T15:46:19;110.10;;;102.80;;
2035;SDS011;23642;42.658;23.350;2023-06-22T15:49:08;109.20;;;102.13;;
2035;SDS011;23642;42.658;23.350;2023-06-22T15:51:51;112.30;;;104.70;;
2035;SDS011;23642;42.658;23.350;2023-06-22T15:54:27;111.63;;;104.43;;
2035;SDS011;23642;42.658;23.350;2023-06-22T15:57:12;109.73;;;102.47;;
2035;SDS011;23642;42.658;23.350;2023-06-22T16:00:16;112.83;;;105.27;;
2035;SDS011;23642;42.658;23.350;2023-06-22T16:02:47;108.33;;;101.33;;
2035;SDS011;23642;42.658;23.350;2023-06-22T16:05:18;110.17;;;102.80;;
2035;SDS011;23642;42.658;23.350;2023-06-22T16:11:06;112.50;;;104.57;;
2035;SDS011;23642;42.658;23.350;2023-06-22T16:13:34;111.60;;;103.90;;
2035;SDS011;23642;42.658;23.350;2023-06-22T16:16:01;110.57;;;102.87;;
2035;SDS011;23642;42.658;23.350;2023-06-22T16:18:28;110.03;;;102.33;;
2035;SDS011;23642;42.658;23.350;2023-06-22T16:21:03;112.63;;;104.10;;
2035;SDS011;23642;42.658;23.350;2023-06-22T16:23:43;112.73;;;104.70;;
2035;SDS011;23642;42.658;23.350;2023-06-22T16:26:13;111.93;;;104.10;;
2035;SDS011;23642;42.658;23.350;2023-06-22T16:31:54;107.83;;;100.47;;
2035;SDS011;23642;42.658;23.350;2023-06-22T16:34:29;110.40;;;102.87;;
2035;SDS011;23642;42.658;23.350;2023-06-22T16:37:07;109.43;;;101.90;;
2035;SDS011;23642;42.658;23.350;2023-06-22T16:39:45;111.37;;;103.37;;
2035;SDS011;23642;42.658;23.350;2023-06-22T16:42:26;113.63;;;105.27;;
2035;SDS011;23642;42.658;23.350;2023-06-22T16:45:00;112.47;;;103.93;;
2035;SDS011;23642;42.658;23.350;2023-06-22T16:47:32;108.90;;;101.10;;
2035;SDS011;23642;42.658;23.350;2023-06-22T16:50:01;107.83;;;100.30;;
2035;SDS011;23642;42.658;23.350;2023-06-22T16:52:30;111.20;;;103.80;;
2035;SDS011;23642;42.658;23.350;2023-06-22T16:55:04;109.17;;;101.77;;
2035;SDS011;23642;42.658;23.350;2023-06-22T16:57:36;106.57;;;99.50;;
2035;SDS011;23642;42.658;23.350;2023-06-22T17:00:04;107.60;;;100.30;;
2035;SDS011;23642;42.658;23.350;2023-06-22T17:02:38;109.10;;;101.50;;
2035;SDS011;23642;42.658;23.350;2023-06-22T17:05:19;109.90;;;101.80;;
2035;SDS011;23642;42.658;23.350;2023-06-22T17:07:56;108.97;;;101.50;;
2035;SDS011;23642;42.658;23.350;2023-06-22T17:10:32;108.00;;;100.30;;
2035;SDS011;23642;42.658;23.350;2023-06-22T17:13:03;106.60;;;99.23;;
2035;SDS011;23642;42.658;23.350;2023-06-22T17:15:55;107.80;;;100.43;;
2035;SDS011;23642;42.658;23.350;2023-06-22T17:18:48;111.27;;;103.33;;
2035;SDS011;23642;42.658;23.350;2023-06-22T17:21:31;109.43;;;101.70;;
2035;SDS011;23642;42.658;23.350;2023-06-22T17:24:01;109.57;;;101.73;;
2035;SDS011;23642;42.658;23.350;2023-06-22T17:26:33;109.07;;;101.57;;
2035;SDS011;23642;42.658;23.350;2023-06-22T17:29:11;106.53;;;99.10;;
2035;SDS011;23642;42.658;23.350;2023-06-22T17:31:57;106.10;;;98.50;;
2035;SDS011;23642;42.658;23.350;2023-06-22T17:34:35;105.87;;;98.57;;
2035;SDS011;23642;42.658;23.350;2023-06-22T17:37:05;109.03;;;101.10;;
2035;SDS011;23642;42.658;23.350;2023-06-22T17:39:38;105.60;;;98.07;;
2035;SDS011;23642;42.658;23.350;2023-06-22T17:42:09;107.27;;;99.33;;
2035;SDS011;23642;42.658;23.350;2023-06-22T17:44:48;105.40;;;97.73;;
2035;SDS011;23642;42.658;23.350;2023-06-22T17:47:28;104.87;;;97.83;;
2035;SDS011;23642;42.658;23.350;2023-06-22T17:50:06;106.53;;;98.77;;
2035;SDS011;23642;42.658;23.350;2023-06-22T17:55:44;108.97;;;101.20;;
2035;SDS011;23642;42.658;23.350;2023-06-22T17:58:14;107.43;;;99.53;;
2035;SDS011;23642;42.658;23.350;2023-06-22T18:00:54;104.93;;;97.97;;
2035;SDS011;23642;42.658;23.350;2023-06-22T18:03:31;105.00;;;97.90;;
2035;SDS011;23642;42.658;23.350;2023-06-22T18:06:03;105.97;;;98.27;;
2035;SDS011;23642;42.658;23.350;2023-06-22T18:08:57;108.50;;;100.77;;
2035;SDS011;23642;42.658;23.350;2023-06-22T18:11:33;103.50;;;95.83;;
2035;SDS011;23642;42.658;23.350;2023-06-22T18:14:03;104.87;;;97.27;;
2035;SDS011;23642;42.658;23.350;2023-06-22T18:16:39;106.17;;;98.27;;
2035;SDS011;23642;42.658;23.350;2023-06-22T18:19:13;106.77;;;98.90;;
2035;SDS011;23642;42.658;23.350;2023-06-22T18:21:50;104.03;;;96.67;;
2035;SDS011;23642;42.658;23.350;2023-06-22T18:24:23;104.10;;;96.50;;
2035;SDS011;23642;42.658;23.350;2023-06-22T18:27:10;103.73;;;96.07;;
2035;SDS011;23642;42.658;23.350;2023-06-22T18:29:49;102.07;;;94.70;;
2035;SDS011;23642;42.658;23.350;2023-06-22T18:32:23;104.03;;;96.20;;
2035;SDS011;23642;42.658;23.350;2023-06-22T18:35:23;101.53;;;94.03;;
2035;SDS011;23642;42.658;23.350;2023-06-22T18:38:03;103.10;;;95.60;;
2035;SDS011;23642;42.658;23.350;2023-06-22T18:40:43;102.80;;;95.60;;
2035;SDS011;23642;42.658;23.350;2023-06-22T18:44:10;100.53;;;93.33;;
2035;SDS011;23642;42.658;23.350;2023-06-22T18:46:31;101.47;;;93.93;;
2035;SDS011;23642;42.658;23.350;2023-06-22T18:49:14;103.40;;;94.97;;
2035;SDS011;23642;42.658;23.350;2023-06-22T18:52:02;99.13;;;92.13;;
2035;SDS011;23642;42.658;23.350;2023-06-22T18:54:34;101.23;;;93.50;;
2035;SDS011;23642;42.658;23.350;2023-06-22T18:57:24;100.40;;;92.77;;
2035;SDS011;23642;42.658;23.350;2023-06-22T19:00:18;100.27;;;93.13;;
2035;SDS011;23642;42.658;23.350;2023-06-22T19:03:27;97.60;;;90.33;;
2035;SDS011;23642;42.658;23.350;2023-06-22T19:09:16;100.27;;;93.27;;
2035;SDS011;23642;42.658;23.350;2023-06-22T19:11:49;104.37;;;96.57;;
2035;SDS011;23642;42.658;23.350;2023-06-22T19:14:40;113.73;;;104.73;;
2035;SDS011;23642;42.658;23.350;2023-06-22T19:17:19;104.90;;;96.97;;
2035;SDS011;23642;42.658;23.350;2023-06-22T19:19:51;101.20;;;93.20;;
2035;SDS011;23642;42.658;23.350;2023-06-22T19:22:23;100.80;;;93.70;;
2035;SDS011;23642;42.658;23.350;2023-06-22T19:25:20;98.70;;;91.80;;